Time;durP1;ratioP1;P1;durP2;ratioP2;P2;SDS_P1;SDS_P2;PMS_P1;PMS_P2;Temp;Humidity;BMP_temperature;BMP_pressure;BME280_temperature;BME280_humidity;BME280_pressure;Samples;Min_cycle;Max_cycle;Signal;HPM_P1;HPM_P2
2021/08/25 00:01:57;;;;;;;9.38;3.63;;;;;;;;;;5034298;28;20021;-82
2021/08/25 00:04:22;;;;;;;9.20;4.23;;;;;;;;;;5034931;28;20086;-82
2021/08/25 00:06:48;;;;;;;12.63;3.80;;;;;;;;;;5032693;28;20256;-82
2021/08/25 00:09:13;;;;;;;7.67;3.97;;;;;;;;;;5031854;28;20039;-82
2021/08/25 00:11:38;;;;;;;8.85;4.53;;;;;;;;;;5036850;28;20076;-83
2021/08/25 00:14:04;;;;;;;5.85;3.70;;;;;;;;;;5036017;28;20029;-81
2021/08/25 00:16:29;;;;;;;8.50;3.63;;;;;;;;;;5036181;28;20103;-83
2021/08/25 00:18:54;;;;;;;10.65;4.03;;;;;;;;;;5038466;28;20063;-82
2021/08/25 00:21:19;;;;;;;9.20;5.22;;;;;;;;;;5036623;28;20482;-82
2021/08/25 00:23:45;;;;;;;9.73;5.40;;;;;;;;;;5034187;28;20032;-83
2021/08/25 00:26:10;;;;;;;13.93;5.00;;;;;;;;;;5033452;28;20253;-82
2021/08/25 00:28:36;;;;;;;7.18;3.78;;;;;;;;;;5034152;28;20068;-82
2021/08/25 00:31:01;;;;;;;9.75;4.60;;;;;;;;;;5031649;28;20779;-83
2021/08/25 00:33:27;;;;;;;9.13;4.22;;;;;;;;;;5032644;28;20029;-82
2021/08/25 00:35:52;;;;;;;5.75;4.25;;;;;;;;;;5035788;28;20024;-83
2021/08/25 00:38:17;;;;;;;9.25;4.72;;;;;;;;;;5035878;28;20022;-82
2021/08/25 00:40:43;;;;;;;8.35;4.22;;;;;;;;;;5036580;28;20025;-83
2021/08/25 00:43:09;;;;;;;8.73;4.57;;;;;;;;;;5037018;28;20037;-83
2021/08/25 00:45:39;;;;;;;9.60;5.32;;;;;;;;;;5036029;28;20111;-83
2021/08/25 00:48:05;;;;;;;9.88;5.07;;;;;;;;;;5034646;28;20013;-83
2021/08/25 00:50:30;;;;;;;7.07;4.68;;;;;;;;;;5032883;28;20087;-82
2021/08/25 00:52:55;;;;;;;12.30;5.95;;;;;;;;;;5032056;28;20025;-82
2021/08/25 00:55:20;;;;;;;8.20;4.63;;;;;;;;;;5031488;28;20474;-82
2021/08/25 00:57:46;;;;;;;7.43;4.67;;;;;;;;;;5032150;28;20025;-82
2021/08/25 01:00:11;;;;;;;7.25;4.35;;;;;;;;;;5031837;28;20035;-82
2021/08/25 01:02:44;;;;;;;7.32;3.60;;;;;;;;;;5032242;28;20461;-82
2021/08/25 01:05:09;;;;;;;6.95;4.30;;;;;;;;;;5035648;28;20030;-83
2021/08/25 01:07:36;;;;;;;6.35;3.63;;;;;;;;;;5038296;28;20048;-83
2021/08/25 01:10:20;;;;;;;7.53;4.13;;;;;;;;;;5035597;28;20017;-82
2021/08/25 01:12:45;;;;;;;5.97;3.28;;;;;;;;;;5033771;28;20124;-83
2021/08/25 01:15:11;;;;;;;7.13;4.00;;;;;;;;;;5032788;28;20166;-83
2021/08/25 01:17:37;;;;;;;5.80;4.18;;;;;;;;;;5031640;28;20986;-83
2021/08/25 01:20:03;;;;;;;11.45;5.53;;;;;;;;;;5032538;28;20072;-82
2021/08/25 01:22:29;;;;;;;10.82;5.60;;;;;;;;;;5031422;28;20104;-82
2021/08/25 01:24:54;;;;;;;12.35;5.75;;;;;;;;;;5031500;28;20151;-82
2021/08/25 01:27:19;;;;;;;11.00;5.15;;;;;;;;;;5031067;28;20063;-82
2021/08/25 01:29:46;;;;;;;9.45;5.03;;;;;;;;;;5034136;28;20049;-83
2021/08/25 01:32:11;;;;;;;8.23;4.93;;;;;;;;;;5036133;28;20022;-83
2021/08/25 01:34:53;;;;;;;9.45;4.60;;;;;;;;;;5035976;28;20040;-83
2021/08/25 01:37:19;;;;;;;11.35;4.97;;;;;;;;;;5034229;28;20100;-82
2021/08/25 01:39:44;;;;;;;7.30;4.82;;;;;;;;;;5031460;28;20029;-82
2021/08/25 01:42:10;;;;;;;8.60;4.87;;;;;;;;;;5032472;28;20025;-83
2021/08/25 01:44:35;;;;;;;7.00;4.30;;;;;;;;;;5030630;28;20264;-81
2021/08/25 01:47:00;;;;;;;6.35;4.10;;;;;;;;;;5029635;28;20083;-82
2021/08/25 01:49:25;;;;;;;9.73;4.97;;;;;;;;;;5030342;28;20049;-82
2021/08/25 01:51:51;;;;;;;5.77;3.60;;;;;;;;;;5034139;28;20033;-83
2021/08/25 01:54:16;;;;;;;5.60;4.40;;;;;;;;;;5035432;28;20103;-83
2021/08/25 01:56:42;;;;;;;8.53;3.93;;;;;;;;;;5037269;28;20036;-83
2021/08/25 01:59:07;;;;;;;7.40;5.05;;;;;;;;;;5035248;28;20029;-82
2021/08/25 02:01:32;;;;;;;15.07;5.20;;;;;;;;;;5034175;28;20025;-83
2021/08/25 02:03:58;;;;;;;8.50;4.13;;;;;;;;;;5033422;28;20033;-82
2021/08/25 02:06:24;;;;;;;8.65;5.18;;;;;;;;;;5032813;28;20300;-83
2021/08/25 02:08:49;;;;;;;7.10;4.13;;;;;;;;;;5032102;28;20029;-82
2021/08/25 02:11:14;;;;;;;8.63;5.10;;;;;;;;;;5030174;28;20026;-82
2021/08/25 02:13:40;;;;;;;9.88;4.53;;;;;;;;;;5030956;28;20056;-82
2021/08/25 02:16:05;;;;;;;7.93;4.73;;;;;;;;;;5034147;28;20041;-83
2021/08/25 02:18:30;;;;;;;7.43;4.97;;;;;;;;;;5035348;28;20275;-83
2021/08/25 02:20:55;;;;;;;5.77;4.73;;;;;;;;;;5034454;28;20326;-82
2021/08/25 02:23:20;;;;;;;6.57;4.70;;;;;;;;;;5032882;28;20330;-82
2021/08/25 02:25:46;;;;;;;7.30;4.60;;;;;;;;;;5034770;28;20264;-83
2021/08/25 02:28:11;;;;;;;13.93;5.13;;;;;;;;;;5031670;28;20022;-83
2021/08/25 02:30:37;;;;;;;10.83;5.33;;;;;;;;;;5032634;28;20252;-82
2021/08/25 02:33:03;;;;;;;13.55;5.57;;;;;;;;;;5032458;28;20813;-82
2021/08/25 02:35:28;;;;;;;13.93;6.00;;;;;;;;;;5029642;28;20037;-82
2021/08/25 02:37:54;;;;;;;11.47;5.83;;;;;;;;;;5034703;28;20025;-82
2021/08/25 02:40:19;;;;;;;6.72;5.07;;;;;;;;;;5032983;28;20616;-83
2021/08/25 02:42:44;;;;;;;8.68;5.18;;;;;;;;;;5031831;28;20033;-82
2021/08/25 02:45:09;;;;;;;9.75;6.20;;;;;;;;;;5032987;28;20013;-83
2021/08/25 02:47:34;;;;;;;6.93;5.40;;;;;;;;;;5033540;28;20108;-83
2021/08/25 02:50:00;;;;;;;6.80;5.60;;;;;;;;;;5035345;28;20037;-83
2021/08/25 02:52:25;;;;;;;8.02;6.03;;;;;;;;;;5033917;28;20612;-83
2021/08/25 02:54:50;;;;;;;9.00;6.57;;;;;;;;;;5032486;28;20024;-83
2021/08/25 02:57:15;;;;;;;8.20;5.67;;;;;;;;;;5032427;28;20571;-82
2021/08/25 02:59:41;;;;;;;8.60;6.30;;;;;;;;;;5030187;28;20267;-82
2021/08/25 03:02:06;;;;;;;6.73;5.93;;;;;;;;;;5038380;28;20298;-82
2021/08/25 03:04:31;;;;;;;5.13;4.27;;;;;;;;;;5036669;28;20253;-82
2021/08/25 03:06:56;;;;;;;9.13;5.33;;;;;;;;;;5035551;28;20307;-83
2021/08/25 03:09:21;;;;;;;7.27;5.47;;;;;;;;;;5036099;28;20264;-83
2021/08/25 03:11:48;;;;;;;7.03;5.13;;;;;;;;;;5035318;28;20026;-82
2021/08/25 03:14:13;;;;;;;6.97;5.65;;;;;;;;;;5033045;28;20032;-82
2021/08/25 03:16:39;;;;;;;7.67;5.13;;;;;;;;;;5037617;28;20104;-82
2021/08/25 03:19:04;;;;;;;8.87;6.00;;;;;;;;;;5037524;28;20393;-83
2021/08/25 03:21:29;;;;;;;9.27;5.73;;;;;;;;;;5036701;28;20298;-82
2021/08/25 03:23:54;;;;;;;7.97;6.30;;;;;;;;;;5038519;28;20267;-83
2021/08/25 03:26:19;;;;;;;9.67;5.77;;;;;;;;;;5037196;28;20662;-83
2021/08/25 03:28:45;;;;;;;9.60;6.33;;;;;;;;;;5035348;28;20256;-83
2021/08/25 03:31:10;;;;;;;9.52;6.35;;;;;;;;;;5035572;28;20264;-82
2021/08/25 03:33:35;;;;;;;10.57;6.45;;;;;;;;;;5034876;28;20513;-82
2021/08/25 03:36:01;;;;;;;6.93;5.70;;;;;;;;;;5034584;28;20021;-82
2021/08/25 03:38:26;;;;;;;9.63;5.43;;;;;;;;;;5034088;28;20029;-83
2021/08/25 03:40:51;;;;;;;11.23;5.13;;;;;;;;;;5036293;28;20033;-82
2021/08/25 03:43:16;;;;;;;11.47;4.93;;;;;;;;;;5037821;28;20037;-83
2021/08/25 03:45:41;;;;;;;8.33;5.70;;;;;;;;;;5035549;28;20260;-83
2021/08/25 03:48:07;;;;;;;7.55;5.13;;;;;;;;;;5039019;28;20033;-82
2021/08/25 03:50:32;;;;;;;5.37;3.70;;;;;;;;;;5035701;28;20783;-82
2021/08/25 03:52:57;;;;;;;8.20;4.30;;;;;;;;;;5034259;28;20063;-82
2021/08/25 03:55:22;;;;;;;6.50;4.30;;;;;;;;;;5034841;28;20279;-83
2021/08/25 03:57:48;;;;;;;8.13;4.57;;;;;;;;;;5034020;28;20264;-82
2021/08/25 04:00:13;;;;;;;4.67;3.70;;;;;;;;;;5033470;28;20033;-82
2021/08/25 04:02:38;;;;;;;8.43;4.80;;;;;;;;;;5033276;28;20280;-82
2021/08/25 04:05:04;;;;;;;5.80;3.87;;;;;;;;;;5033113;28;20850;-82
2021/08/25 04:07:29;;;;;;;9.80;4.85;;;;;;;;;;5034770;28;20018;-82
2021/08/25 04:09:54;;;;;;;10.65;4.50;;;;;;;;;;5039390;28;20025;-83
2021/08/25 04:12:19;;;;;;;8.67;4.03;;;;;;;;;;5037380;28;20034;-82
2021/08/25 04:14:44;;;;;;;6.60;4.30;;;;;;;;;;5036545;28;20094;-83
2021/08/25 04:17:09;;;;;;;5.37;3.70;;;;;;;;;;5034182;28;20358;-83
2021/08/25 04:19:35;;;;;;;6.07;3.37;;;;;;;;;;5034388;28;20270;-82
2021/08/25 04:22:00;;;;;;;4.33;3.43;;;;;;;;;;5032053;28;20025;-82
2021/08/25 04:24:25;;;;;;;7.32;3.65;;;;;;;;;;5033059;28;20108;-82
2021/08/25 04:26:51;;;;;;;8.85;3.50;;;;;;;;;;5032689;28;20025;-82
2021/08/25 04:29:16;;;;;;;6.95;3.70;;;;;;;;;;5032580;28;20036;-82
2021/08/25 04:31:41;;;;;;;5.57;3.17;;;;;;;;;;5032342;28;20025;-82
2021/08/25 04:34:06;;;;;;;5.30;2.50;;;;;;;;;;5034409;28;20064;-83
2021/08/25 04:36:32;;;;;;;4.00;2.43;;;;;;;;;;5037702;28;20029;-83
2021/08/25 04:38:57;;;;;;;3.38;2.50;;;;;;;;;;5036005;28;20628;-82
2021/08/25 04:41:22;;;;;;;7.57;2.87;;;;;;;;;;5035317;28;20104;-83
2021/08/25 04:43:47;;;;;;;5.83;2.83;;;;;;;;;;5034848;28;20433;-82
2021/08/25 04:46:16;;;;;;;7.40;2.70;;;;;;;;;;5032027;28;20260;-82
2021/08/25 04:48:41;;;;;;;4.88;2.22;;;;;;;;;;5033166;28;20272;-82
2021/08/25 04:51:07;;;;;;;9.32;2.72;;;;;;;;;;5032583;28;20080;-82
2021/08/25 04:53:32;;;;;;;7.40;2.95;;;;;;;;;;5034598;28;20124;-83
2021/08/25 04:55:57;;;;;;;11.37;2.50;;;;;;;;;;5037057;28;20045;-82
2021/08/25 04:58:22;;;;;;;9.70;3.43;;;;;;;;;;5037542;28;20497;-83
2021/08/25 05:00:48;;;;;;;5.55;2.72;;;;;;;;;;5034474;28;20025;-83
2021/08/25 05:03:14;;;;;;;6.80;2.25;;;;;;;;;;5033392;28;20079;-83
2021/08/25 05:05:39;;;;;;;6.82;2.65;;;;;;;;;;5034522;28;20110;-82
2021/08/25 05:08:05;;;;;;;5.43;2.25;;;;;;;;;;5032267;28;20081;-82
2021/08/25 05:10:30;;;;;;;5.43;2.67;;;;;;;;;;5031046;28;20025;-82
2021/08/25 05:12:55;;;;;;;9.45;1.95;;;;;;;;;;5032564;28;20021;-82
2021/08/25 05:15:20;;;;;;;6.25;2.25;;;;;;;;;;5031963;28;20057;-82
2021/08/25 05:17:45;;;;;;;7.93;2.27;;;;;;;;;;5033556;28;20025;-82
2021/08/25 05:20:11;;;;;;;7.33;2.17;;;;;;;;;;5035106;28;20025;-82
2021/08/25 05:22:36;;;;;;;8.52;2.38;;;;;;;;;;5035032;28;20017;-83
2021/08/25 05:25:01;;;;;;;4.10;1.63;;;;;;;;;;5033595;28;20017;-83
2021/08/25 05:27:27;;;;;;;7.72;2.35;;;;;;;;;;5034533;28;20495;-83
2021/08/25 05:29:52;;;;;;;8.77;2.47;;;;;;;;;;5035073;28;20108;-83
2021/08/25 05:32:17;;;;;;;7.70;2.33;;;;;;;;;;5032230;28;20052;-82
2021/08/25 05:34:42;;;;;;;6.65;2.78;;;;;;;;;;5033265;28;20624;-82
2021/08/25 05:37:08;;;;;;;13.70;2.65;;;;;;;;;;5032775;28;20036;-82
2021/08/25 05:39:33;;;;;;;5.20;2.10;;;;;;;;;;5030749;28;20028;-83
2021/08/25 05:41:58;;;;;;;6.23;2.20;;;;;;;;;;5034334;28;20025;-83
2021/08/25 05:44:24;;;;;;;4.80;1.70;;;;;;;;;;5033875;28;20022;-82
2021/08/25 05:46:49;;;;;;;7.83;2.17;;;;;;;;;;5033740;28;20111;-83
2021/08/25 05:49:14;;;;;;;4.15;2.15;;;;;;;;;;5033946;28;20267;-83
2021/08/25 05:51:39;;;;;;;6.13;2.07;;;;;;;;;;5035724;28;20025;-83
2021/08/25 05:54:05;;;;;;;5.30;1.70;;;;;;;;;;5033290;28;20318;-82
2021/08/25 05:56:30;;;;;;;9.25;2.38;;;;;;;;;;5033548;28;20261;-83
2021/08/25 05:58:55;;;;;;;4.00;1.90;;;;;;;;;;5033153;28;20029;-82
2021/08/25 06:01:20;;;;;;;6.68;1.98;;;;;;;;;;5031678;28;20322;-83
2021/08/25 06:03:45;;;;;;;7.90;2.03;;;;;;;;;;5036423;28;20679;-83
2021/08/25 06:06:12;;;;;;;7.10;1.73;;;;;;;;;;5034931;28;20496;-83
2021/08/25 06:08:37;;;;;;;6.50;2.45;;;;;;;;;;5032706;28;20275;-83
2021/08/25 06:11:02;;;;;;;7.88;2.03;;;;;;;;;;5033659;28;20025;-83
2021/08/25 06:13:28;;;;;;;8.67;2.13;;;;;;;;;;5030525;28;20037;-83
2021/08/25 06:15:53;;;;;;;9.05;1.92;;;;;;;;;;5034407;28;20159;-83
2021/08/25 06:18:19;;;;;;;6.53;2.57;;;;;;;;;;5034986;28;20120;-82
2021/08/25 06:20:44;;;;;;;5.18;2.28;;;;;;;;;;5031330;28;20547;-82
2021/08/25 06:23:09;;;;;;;4.68;1.83;;;;;;;;;;5030502;28;20032;-83
2021/08/25 06:25:34;;;;;;;7.93;2.70;;;;;;;;;;5035263;28;20030;-83
2021/08/25 06:28:01;;;;;;;10.00;3.20;;;;;;;;;;5033936;28;20029;-83
2021/08/25 06:30:26;;;;;;;7.03;2.97;;;;;;;;;;5033356;28;20253;-82
2021/08/25 06:32:53;;;;;;;9.87;2.97;;;;;;;;;;5032101;28;20084;-83
2021/08/25 06:35:18;;;;;;;13.10;3.55;;;;;;;;;;5031305;28;20025;-82
2021/08/25 06:37:44;;;;;;;11.07;3.20;;;;;;;;;;5031110;28;20039;-83
2021/08/25 06:40:09;;;;;;;7.05;3.00;;;;;;;;;;5034805;28;20025;-82
2021/08/25 06:42:34;;;;;;;7.72;3.30;;;;;;;;;;5033269;28;20029;-82
2021/08/25 06:44:59;;;;;;;9.50;3.47;;;;;;;;;;5034844;28;20037;-83
2021/08/25 06:47:25;;;;;;;7.20;3.10;;;;;;;;;;5034986;28;20540;-82
2021/08/25 06:49:50;;;;;;;6.37;2.80;;;;;;;;;;5033503;28;20024;-83
2021/08/25 06:52:15;;;;;;;11.32;3.53;;;;;;;;;;5032467;28;20474;-84
2021/08/25 06:54:40;;;;;;;7.23;3.73;;;;;;;;;;5029713;28;20022;-83
2021/08/25 06:57:06;;;;;;;12.02;3.50;;;;;;;;;;5031315;28;20263;-82
2021/08/25 06:59:31;;;;;;;15.15;3.60;;;;;;;;;;5030619;28;20122;-82
2021/08/25 07:01:56;;;;;;;8.17;4.33;;;;;;;;;;5033911;28;20025;-83
2021/08/25 07:04:21;;;;;;;7.90;3.20;;;;;;;;;;5033753;28;20087;-83
2021/08/25 07:06:47;;;;;;;9.75;3.38;;;;;;;;;;5035739;28;20456;-83
2021/08/25 07:09:12;;;;;;;9.87;3.63;;;;;;;;;;5035096;28;20029;-84
2021/08/25 07:11:37;;;;;;;10.03;3.77;;;;;;;;;;5033451;28;20310;-82
2021/08/25 07:14:03;;;;;;;7.70;3.65;;;;;;;;;;5032788;28;20272;-83
2021/08/25 07:16:33;;;;;;;7.57;3.83;;;;;;;;;;5031098;28;20722;-82
2021/08/25 07:18:58;;;;;;;10.77;3.73;;;;;;;;;;5031525;28;20030;-83
2021/08/25 07:21:24;;;;;;;7.40;3.63;;;;;;;;;;5030486;28;20268;-83
2021/08/25 07:23:50;;;;;;;8.73;3.75;;;;;;;;;;5028501;28;20029;-82
2021/08/25 07:26:15;;;;;;;7.85;3.83;;;;;;;;;;5031408;28;20019;-83
2021/08/25 07:28:43;;;;;;;5.45;3.22;;;;;;;;;;5035958;28;20017;-82
2021/08/25 07:31:09;;;;;;;7.90;3.90;;;;;;;;;;5034507;28;20362;-82
2021/08/25 07:33:34;;;;;;;11.18;4.70;;;;;;;;;;5034138;28;20040;-82
2021/08/25 07:35:59;;;;;;;8.90;4.13;;;;;;;;;;5033439;28;20401;-82
2021/08/25 07:38:24;;;;;;;7.50;3.80;;;;;;;;;;5031873;28;20271;-83
2021/08/25 07:40:49;;;;;;;8.90;4.57;;;;;;;;;;5029568;28;20268;-83
2021/08/25 07:43:15;;;;;;;9.70;4.37;;;;;;;;;;5030726;28;20025;-83
2021/08/25 07:45:40;;;;;;;7.32;3.67;;;;;;;;;;5030226;28;20442;-82
2021/08/25 07:48:05;;;;;;;13.50;3.90;;;;;;;;;;5031465;28;20033;-82
2021/08/25 07:50:30;;;;;;;8.73;4.38;;;;;;;;;;5034317;28;20029;-83
2021/08/25 07:52:56;;;;;;;6.47;4.37;;;;;;;;;;5037978;28;20025;-83
2021/08/25 07:55:21;;;;;;;9.13;4.10;;;;;;;;;;5039172;28;20025;-83
2021/08/25 07:57:46;;;;;;;9.90;4.27;;;;;;;;;;5038694;28;20025;-83
2021/08/25 08:00:11;;;;;;;10.37;5.03;;;;;;;;;;5037432;28;20053;-83
2021/08/25 08:02:36;;;;;;;8.80;4.63;;;;;;;;;;5036409;28;20280;-82
2021/08/25 08:05:03;;;;;;;6.47;4.93;;;;;;;;;;5035386;28;20017;-82
2021/08/25 08:07:29;;;;;;;9.13;4.57;;;;;;;;;;5034409;28;20040;-83
2021/08/25 08:09:54;;;;;;;9.23;4.20;;;;;;;;;;5034339;28;20682;-82
2021/08/25 08:12:19;;;;;;;8.60;4.00;;;;;;;;;;5033860;28;20450;-82
2021/08/25 08:14:44;;;;;;;11.53;5.17;;;;;;;;;;5037628;28;20083;-83
2021/08/25 08:17:09;;;;;;;7.57;4.50;;;;;;;;;;5038259;28;20030;-83
2021/08/25 08:19:35;;;;;;;11.25;5.20;;;;;;;;;;5037641;28;20267;-83
2021/08/25 08:22:01;;;;;;;11.32;4.07;;;;;;;;;;5036357;28;20025;-83
2021/08/25 08:24:27;;;;;;;11.80;4.53;;;;;;;;;;5036064;28;20028;-83
2021/08/25 08:26:52;;;;;;;13.38;4.70;;;;;;;;;;5037768;28;20028;-83
2021/08/25 08:29:18;;;;;;;13.30;5.95;;;;;;;;;;5035878;28;20017;-83
2021/08/25 08:31:43;;;;;;;9.40;4.72;;;;;;;;;;5035362;28;20029;-83
2021/08/25 08:34:08;;;;;;;10.18;4.78;;;;;;;;;;5036435;28;20485;-83
2021/08/25 08:36:33;;;;;;;12.90;4.87;;;;;;;;;;5036339;28;20025;-83
2021/08/25 08:38:59;;;;;;;8.85;4.15;;;;;;;;;;5033695;28;20268;-83
2021/08/25 08:41:24;;;;;;;8.77;4.40;;;;;;;;;;5033674;28;20422;-82
2021/08/25 08:43:51;;;;;;;7.63;4.05;;;;;;;;;;5031757;28;20665;-82
2021/08/25 08:46:17;;;;;;;9.43;4.00;;;;;;;;;;5032639;28;20048;-83
2021/08/25 08:48:42;;;;;;;6.40;3.40;;;;;;;;;;5035018;28;20025;-83
2021/08/25 08:51:14;;;;;;;7.85;4.18;;;;;;;;;;5036054;28;20026;-83
2021/08/25 08:53:39;;;;;;;8.50;3.72;;;;;;;;;;5035063;28;20117;-83
2021/08/25 08:56:04;;;;;;;9.73;3.40;;;;;;;;;;5037547;28;20060;-82
2021/08/25 08:58:29;;;;;;;6.93;2.95;;;;;;;;;;5033732;28;20782;-83
2021/08/25 09:00:55;;;;;;;7.85;3.35;;;;;;;;;;5034765;28;20025;-83
2021/08/25 09:03:21;;;;;;;10.50;3.70;;;;;;;;;;5033258;28;20029;-83
2021/08/25 09:05:52;;;;;;;8.60;3.42;;;;;;;;;;5032893;28;20021;-82
2021/08/25 09:08:21;;;;;;;7.57;3.28;;;;;;;;;;5032053;28;20025;-82
2021/08/25 09:10:46;;;;;;;9.15;3.58;;;;;;;;;;5033418;28;20029;-83
2021/08/25 09:13:11;;;;;;;6.47;3.03;;;;;;;;;;5035819;28;20026;-83
2021/08/25 09:15:38;;;;;;;7.15;3.70;;;;;;;;;;5037553;28;20280;-83
2021/08/25 09:18:04;;;;;;;10.60;3.28;;;;;;;;;;5036117;28;20033;-83
2021/08/25 09:20:31;;;;;;;7.00;3.60;;;;;;;;;;5035025;28;20053;-83
2021/08/25 09:23:05;;;;;;;9.85;3.85;;;;;;;;;;5032138;28;20022;-83
2021/08/25 09:25:31;;;;;;;7.18;3.83;;;;;;;;;;5032868;28;20049;-82
2021/08/25 09:27:57;;;;;;;7.65;3.40;;;;;;;;;;5030469;28;20025;-82
2021/08/25 09:30:22;;;;;;;6.07;3.30;;;;;;;;;;5031727;28;20068;-82
2021/08/25 09:32:47;;;;;;;10.80;3.97;;;;;;;;;;5031298;28;20104;-82
2021/08/25 09:35:12;;;;;;;7.03;3.40;;;;;;;;;;5033415;28;20021;-82
2021/08/25 09:37:37;;;;;;;6.43;3.77;;;;;;;;;;5035718;28;20036;-83
2021/08/25 09:40:09;;;;;;;7.60;3.80;;;;;;;;;;5036460;28;20036;-82
2021/08/25 09:42:42;;;;;;;6.00;3.15;;;;;;;;;;5033150;28;20280;-82
2021/08/25 09:45:08;;;;;;;7.15;2.97;;;;;;;;;;5032024;28;20120;-82
2021/08/25 09:47:49;;;;;;;6.93;3.50;;;;;;;;;;5032580;28;20509;-82
2021/08/25 09:50:16;;;;;;;5.53;3.05;;;;;;;;;;5031967;28;20048;-83
2021/08/25 09:52:42;;;;;;;5.78;3.45;;;;;;;;;;5031901;28;20025;-82
2021/08/25 09:55:07;;;;;;;4.97;2.65;;;;;;;;;;5031086;28;20159;-82
2021/08/25 09:57:40;;;;;;;6.28;2.70;;;;;;;;;;5030955;28;20389;-82
2021/08/25 10:00:07;;;;;;;4.47;2.88;;;;;;;;;;5031495;28;20069;-83
2021/08/25 10:02:32;;;;;;;5.95;3.38;;;;;;;;;;5035406;28;20025;-83
2021/08/25 10:04:57;;;;;;;6.47;3.00;;;;;;;;;;5037231;28;20028;-83
2021/08/25 10:07:22;;;;;;;5.22;2.83;;;;;;;;;;5034946;28;20029;-83
2021/08/25 10:09:48;;;;;;;7.33;2.93;;;;;;;;;;5031783;28;20812;-83
2021/08/25 10:12:13;;;;;;;6.78;3.20;;;;;;;;;;5030981;28;20288;-82
2021/08/25 10:14:38;;;;;;;7.15;3.35;;;;;;;;;;5032657;28;20642;-82
2021/08/25 10:17:03;;;;;;;5.97;3.03;;;;;;;;;;5031598;28;20502;-82
2021/08/25 10:19:36;;;;;;;6.97;3.30;;;;;;;;;;5031305;28;20330;-82
2021/08/25 10:22:03;;;;;;;6.30;3.50;;;;;;;;;;5029648;28;20128;-82
2021/08/25 10:25:02;;;;;;;7.18;3.47;;;;;;;;;;5029207;28;20040;-83
2021/08/25 10:27:30;;;;;;;8.23;3.33;;;;;;;;;;5012191;28;20040;-83
2021/08/25 10:30:14;;;;;;;6.07;3.55;;;;;;;;;;5035738;28;20025;-83
2021/08/25 10:33:00;;;;;;;6.53;3.38;;;;;;;;;;5035701;28;20485;-82
2021/08/25 10:35:30;;;;;;;5.03;3.38;;;;;;;;;;5029931;28;20136;-82
2021/08/25 10:38:14;;;;;;;8.07;3.72;;;;;;;;;;5033502;28;20022;-82
2021/08/25 10:40:39;;;;;;;8.50;5.05;;;;;;;;;;5030636;28;20419;-82
2021/08/25 10:43:05;;;;;;;8.20;4.10;;;;;;;;;;5031340;28;20083;-82
2021/08/25 10:45:45;;;;;;;7.47;4.22;;;;;;;;;;5030879;28;20033;-82
2021/08/25 10:48:11;;;;;;;6.13;4.28;;;;;;;;;;5032286;28;20732;-83
2021/08/25 10:50:53;;;;;;;10.15;5.07;;;;;;;;;;5036776;28;20104;-83
2021/08/25 10:53:30;;;;;;;9.80;4.28;;;;;;;;;;5035849;28;20033;-82
2021/08/25 10:56:08;;;;;;;10.65;5.15;;;;;;;;;;5033974;28;20041;-83
2021/08/25 10:58:45;;;;;;;11.15;5.80;;;;;;;;;;5033355;28;20031;-83
2021/08/25 11:01:29;;;;;;;15.10;5.63;;;;;;;;;;5035984;28;20099;-83
2021/08/25 11:03:54;;;;;;;6.78;4.65;;;;;;;;;;5033188;28;20033;-83
2021/08/25 11:06:27;;;;;;;14.20;5.57;;;;;;;;;;5030832;28;20026;-83
2021/08/25 11:08:52;;;;;;;7.88;5.20;;;;;;;;;;5029837;28;20028;-83
2021/08/25 11:11:17;;;;;;;9.60;4.90;;;;;;;;;;5030647;28;20018;-82
2021/08/25 11:13:42;;;;;;;7.57;4.87;;;;;;;;;;5031341;28;20041;-83
2021/08/25 11:16:23;;;;;;;14.10;5.43;;;;;;;;;;5034869;28;20417;-83
2021/08/25 11:18:49;;;;;;;6.70;4.53;;;;;;;;;;5033620;28;20259;-83
2021/08/25 11:21:14;;;;;;;10.50;4.73;;;;;;;;;;5031851;28;20481;-83
2021/08/25 11:23:55;;;;;;;7.73;4.40;;;;;;;;;;5038250;28;20033;-83
2021/08/25 11:26:20;;;;;;;13.38;4.47;;;;;;;;;;5035630;28;20264;-83
2021/08/25 11:28:45;;;;;;;11.23;4.95;;;;;;;;;;5036236;28;20752;-83
2021/08/25 11:31:10;;;;;;;13.23;4.47;;;;;;;;;;5033842;28;20018;-83
2021/08/25 11:33:42;;;;;;;7.82;4.75;;;;;;;;;;5035460;28;20052;-82
2021/08/25 11:36:07;;;;;;;11.73;4.72;;;;;;;;;;5038191;28;20452;-83
2021/08/25 11:38:34;;;;;;;11.57;4.85;;;;;;;;;;5037006;28;20049;-83
2021/08/25 11:40:59;;;;;;;11.40;4.95;;;;;;;;;;5036050;28;20033;-83
2021/08/25 11:43:25;;;;;;;14.83;4.80;;;;;;;;;;5035042;28;20037;-83
2021/08/25 11:45:56;;;;;;;11.82;5.43;;;;;;;;;;5036587;28;20624;-83
2021/08/25 11:48:21;;;;;;;;;;;;;;;;;;5036517;28;20025;-83
2021/08/25 11:50:48;;;;;;;9.95;4.72;;;;;;;;;;5035081;28;19915;-83
2021/08/25 11:53:18;;;;;;;9.90;4.15;;;;;;;;;;5034982;28;20485;-82
2021/08/25 11:55:43;;;;;;;18.50;5.28;;;;;;;;;;5038756;28;20030;-83
2021/08/25 11:58:27;;;;;;;17.20;4.70;;;;;;;;;;5037414;28;20047;-83
2021/08/25 12:00:53;;;;;;;8.38;3.72;;;;;;;;;;5036478;28;20034;-83
2021/08/25 12:03:18;;;;;;;10.93;3.90;;;;;;;;;;5035814;28;20125;-83
2021/08/25 12:05:51;;;;;;;9.23;4.38;;;;;;;;;;5033643;28;20021;-82
2021/08/25 12:08:16;;;;;;;11.05;4.20;;;;;;;;;;5034645;28;20025;-82
2021/08/25 12:10:44;;;;;;;11.07;3.73;;;;;;;;;;5033646;28;20035;-82
2021/08/25 12:13:12;;;;;;;9.23;3.05;;;;;;;;;;5035034;28;20263;-83
2021/08/25 12:15:41;;;;;;;7.53;2.47;;;;;;;;;;5035553;28;20068;-83
2021/08/25 12:18:06;;;;;;;9.45;3.38;;;;;;;;;;5034207;28;20045;-82
2021/08/25 12:20:35;;;;;;;9.17;2.80;;;;;;;;;;5037517;28;20028;-83
2021/08/25 12:23:04;;;;;;;4.20;2.70;;;;;;;;;;5038664;28;20029;-83
2021/08/25 12:25:38;;;;;;;8.15;3.10;;;;;;;;;;5035733;28;20025;-83
2021/08/25 12:28:03;;;;;;;10.65;3.45;;;;;;;;;;5034616;28;20022;-83
2021/08/25 12:30:33;;;;;;;4.35;2.67;;;;;;;;;;5032236;28;20671;-83
2021/08/25 12:32:58;;;;;;;8.43;2.60;;;;;;;;;;5032421;28;20036;-82
2021/08/25 12:35:24;;;;;;;6.30;3.10;;;;;;;;;;5033815;28;20473;-83
2021/08/25 12:37:51;;;;;;;6.18;2.30;;;;;;;;;;5036508;28;20025;-83
2021/08/25 12:40:19;;;;;;;8.23;1.88;;;;;;;;;;5034990;28;20040;-83
2021/08/25 12:42:44;;;;;;;4.25;2.28;;;;;;;;;;5036877;28;20025;-83
2021/08/25 12:45:10;;;;;;;6.88;2.70;;;;;;;;;;5037005;28;20033;-82
2021/08/25 12:47:35;;;;;;;7.55;2.13;;;;;;;;;;5035595;28;20025;-83
2021/08/25 12:50:00;;;;;;;3.53;2.70;;;;;;;;;;5034203;28;20484;-82
2021/08/25 12:52:27;;;;;;;8.47;2.93;;;;;;;;;;5032100;28;20272;-82
2021/08/25 12:54:52;;;;;;;7.03;3.17;;;;;;;;;;5032709;28;20264;-82
2021/08/25 12:57:17;;;;;;;12.00;4.40;;;;;;;;;;5032239;28;20033;-82
2021/08/25 12:59:42;;;;;;;9.13;3.50;;;;;;;;;;5032140;28;20071;-82
2021/08/25 13:02:07;;;;;;;12.17;4.10;;;;;;;;;;5035471;28;20032;-83
2021/08/25 13:04:34;;;;;;;9.13;3.60;;;;;;;;;;5037569;28;20084;-83
2021/08/25 13:07:00;;;;;;;11.38;4.43;;;;;;;;;;5036675;28;20116;-82
2021/08/25 13:09:25;;;;;;;15.90;4.17;;;;;;;;;;5034177;28;20520;-83
2021/08/25 13:11:50;;;;;;;12.07;5.10;;;;;;;;;;5034198;28;20284;-82
2021/08/25 13:14:15;;;;;;;13.83;4.70;;;;;;;;;;5032912;28;20021;-82
2021/08/25 13:16:40;;;;;;;17.27;5.33;;;;;;;;;;5032191;28;20644;-82
2021/08/25 13:19:06;;;;;;;13.03;4.50;;;;;;;;;;5029984;28;20770;-82
2021/08/25 13:21:31;;;;;;;13.18;5.25;;;;;;;;;;5031465;28;20076;-82
2021/08/25 13:23:56;;;;;;;11.80;4.50;;;;;;;;;;5030018;28;20055;-82
2021/08/25 13:26:21;;;;;;;7.65;3.30;;;;;;;;;;5032187;28;20064;-83
2021/08/25 13:28:47;;;;;;;8.88;3.47;;;;;;;;;;5038162;28;20429;-83
2021/08/25 13:31:12;;;;;;;10.45;3.70;;;;;;;;;;5038159;28;20020;-83
2021/08/25 13:33:39;;;;;;;8.00;3.45;;;;;;;;;;5036827;28;20025;-83
2021/08/25 13:36:05;;;;;;;9.38;3.75;;;;;;;;;;5035541;28;20497;-82
2021/08/25 13:38:30;;;;;;;7.57;3.13;;;;;;;;;;5031503;28;20040;-82
2021/08/25 13:40:55;;;;;;;6.90;3.40;;;;;;;;;;5033385;28;20056;-82
2021/08/25 13:43:20;;;;;;;8.83;3.97;;;;;;;;;;5032110;28;20075;-82
2021/08/25 13:45:46;;;;;;;8.40;4.20;;;;;;;;;;5029681;28;20310;-83
2021/08/25 13:48:11;;;;;;;10.20;4.30;;;;;;;;;;5030002;28;20025;-82
2021/08/25 13:50:36;;;;;;;15.20;4.97;;;;;;;;;;5036323;28;20302;-83
2021/08/25 13:53:01;;;;;;;12.37;5.53;;;;;;;;;;5037377;28;20432;-83
2021/08/25 13:55:26;;;;;;;8.63;4.25;;;;;;;;;;5033005;28;20033;-82
2021/08/25 13:57:52;;;;;;;10.23;5.05;;;;;;;;;;5034798;28;20047;-82
2021/08/25 14:00:17;;;;;;;10.93;4.23;;;;;;;;;;5033576;28;20064;-83
2021/08/25 14:02:44;;;;;;;10.02;3.80;;;;;;;;;;5035462;28;20283;-82
2021/08/25 14:05:09;;;;;;;10.65;3.40;;;;;;;;;;5035883;28;20021;-83
2021/08/25 14:07:36;;;;;;;8.90;3.38;;;;;;;;;;5034212;28;20017;-83
2021/08/25 14:10:01;;;;;;;10.25;4.32;;;;;;;;;;5031530;28;20025;-83
2021/08/25 14:12:26;;;;;;;9.63;3.57;;;;;;;;;;5032104;28;20041;-83
2021/08/25 14:14:51;;;;;;;5.38;3.50;;;;;;;;;;5030122;28;20024;-83
2021/08/25 14:17:17;;;;;;;8.70;3.38;;;;;;;;;;5035487;28;20076;-82
2021/08/25 14:19:42;;;;;;;8.00;3.43;;;;;;;;;;5036717;28;20033;-83
2021/08/25 14:22:07;;;;;;;8.75;3.72;;;;;;;;;;5034784;28;20877;-82
2021/08/25 14:24:32;;;;;;;9.13;3.37;;;;;;;;;;5031878;28;20027;-83
2021/08/25 14:26:57;;;;;;;12.83;4.20;;;;;;;;;;5032428;28;20253;-83
2021/08/25 14:29:23;;;;;;;8.48;3.00;;;;;;;;;;5031475;28;20032;-83
2021/08/25 14:31:48;;;;;;;8.23;3.33;;;;;;;;;;5033825;28;20049;-83
2021/08/25 14:34:13;;;;;;;8.37;3.60;;;;;;;;;;5033143;28;20147;-83
2021/08/25 14:36:38;;;;;;;7.40;3.70;;;;;;;;;;5031015;28;20395;-82